Time;durP1;ratioP1;P1;durP2;ratioP2;P2;SDS_P1;SDS_P2;PMS_P1;PMS_P2;Temp;Humidity;BMP_temperature;BMP_pressure;BME280_temperature;BME280_humidity;BME280_pressure;Samples;Min_cycle;Max_cycle;Signal;HPM_P1;HPM_P2
2021/03/06 00:00:54;;;;;;;8.15;2.83;;;;;;;1.67;59.74;103450.94;4957443;28;20059;-75
2021/03/06 00:03:21;;;;;;;5.97;2.83;;;;;;;1.64;60.03;103452.72;4947529;28;20055;-77
2021/03/06 00:05:48;;;;;;;4.82;2.30;;;;;;;1.65;59.32;103450.09;4944629;28;20141;-76
2021/03/06 00:08:13;;;;;;;9.55;2.63;;;;;;;1.64;59.48;103448.38;4963708;28;20688;-76
2021/03/06 00:10:40;;;;;;;10.50;3.30;;;;;;;1.61;59.69;103444.97;4959045;28;20184;-76
2021/03/06 00:13:06;;;;;;;7.90;3.15;;;;;;;1.58;59.80;103440.72;4955415;28;20062;-76
2021/03/06 00:15:32;;;;;;;8.93;2.58;;;;;;;1.59;59.92;103450.22;4962371;28;20125;-76
2021/03/06 00:17:58;;;;;;;10.10;3.22;;;;;;;1.54;60.62;103452.84;4940543;28;20078;-76
2021/03/06 00:20:24;;;;;;;9.20;3.15;;;;;;;1.54;60.20;103455.44;4961228;28;20063;-75
2021/03/06 00:22:52;;;;;;;7.68;2.78;;;;;;;1.48;59.48;103446.91;4954993;28;20171;-74
2021/03/06 00:25:19;;;;;;;10.98;3.15;;;;;;;1.41;59.89;103451.31;4959078;28;20062;-75
2021/03/06 00:27:45;;;;;;;10.82;3.20;;;;;;;1.37;60.71;103454.81;4943978;28;20103;-75
2021/03/06 00:30:15;;;;;;;9.35;3.00;;;;;;;1.33;60.49;103455.75;4960621;28;20136;-75
2021/03/06 00:32:41;;;;;;;7.20;2.33;;;;;;;1.29;59.86;103439.41;4963890;28;20479;-74
2021/03/06 00:35:09;;;;;;;7.78;2.72;;;;;;;1.25;60.30;103442.91;4958556;28;20059;-75
2021/03/06 00:37:35;;;;;;;9.75;2.88;;;;;;;1.23;60.11;103444.69;4961837;28;20141;-75
2021/03/06 00:40:04;;;;;;;8.88;2.78;;;;;;;1.23;61.45;103449.00;4953083;28;20170;-75
2021/03/06 00:42:30;;;;;;;11.85;3.17;;;;;;;1.14;60.50;103437.06;4929609;28;20499;-75
2021/03/06 00:44:56;;;;;;;11.85;2.92;;;;;;;1.13;61.21;103445.69;4959573;28;20750;-76
2021/03/06 00:47:22;;;;;;;8.18;3.10;;;;;;;1.05;61.20;103434.59;4943986;28;20106;-75
2021/03/06 00:49:49;;;;;;;9.50;4.00;;;;;;;1.07;60.74;103445.78;4962457;28;20062;-73
2021/03/06 00:52:15;;;;;;;10.07;4.13;;;;;;;1.10;60.99;103451.75;4956549;28;20113;-75
2021/03/06 00:54:41;;;;;;;13.77;3.78;;;;;;;1.05;62.12;103445.78;4945114;28;20062;-74
2021/03/06 00:57:07;;;;;;;13.07;4.13;;;;;;;0.99;60.84;103436.38;4959338;28;20085;-73
2021/03/06 00:59:33;;;;;;;9.70;3.65;;;;;;;0.97;61.34;103452.78;4966644;28;20078;-74
2021/03/06 01:01:59;;;;;;;8.18;3.78;;;;;;;0.84;61.44;103441.75;4959833;28;20063;-74
2021/03/06 01:04:25;;;;;;;9.75;3.75;;;;;;;0.86;62.53;103452.06;4966683;28;20055;-73
2021/03/06 01:06:52;;;;;;;7.95;2.95;;;;;;;0.86;61.29;103450.31;4959446;28;20062;-73
2021/03/06 01:09:18;;;;;;;9.38;3.28;;;;;;;0.86;61.99;103441.72;4960441;28;20128;-74
2021/03/06 01:11:44;;;;;;;8.02;2.70;;;;;;;0.83;61.14;103436.63;4965749;28;20589;-75
2021/03/06 01:14:10;;;;;;;6.72;2.42;;;;;;;0.82;62.07;103443.50;4955992;28;20086;-76
2021/03/06 01:16:36;;;;;;;7.18;2.75;;;;;;;0.80;62.04;103445.22;4959174;28;20136;-75
2021/03/06 01:19:03;;;;;;;9.85;2.70;;;;;;;0.77;62.10;103442.72;4957763;28;20170;-76
2021/03/06 01:21:29;;;;;;;11.95;2.90;;;;;;;0.71;62.02;103437.63;4962742;28;20078;-76
2021/03/06 01:23:55;;;;;;;8.38;2.60;;;;;;;0.71;62.77;103440.19;4959572;28;20088;-75
2021/03/06 01:26:21;;;;;;;7.88;2.55;;;;;;;0.61;62.23;103426.53;4966507;28;20529;-76
2021/03/06 01:28:47;;;;;;;7.43;2.20;;;;;;;0.69;62.52;103444.53;4965820;28;20059;-75
2021/03/06 01:31:13;;;;;;;6.47;2.55;;;;;;;0.67;62.07;103438.53;4955162;28;20570;-75
2021/03/06 01:33:39;;;;;;;7.13;2.42;;;;;;;0.67;61.16;103436.78;4962540;28;20149;-75
2021/03/06 01:36:05;;;;;;;5.05;2.15;;;;;;;0.56;62.54;103416.25;4939313;28;20114;-77
2021/03/06 01:38:32;;;;;;;7.45;2.17;;;;;;;0.64;62.17;103430.81;4934949;28;20542;-75
2021/03/06 01:40:58;;;;;;;12.50;2.58;;;;;;;0.65;61.22;103427.31;4942217;28;20063;-75
2021/03/06 01:43:24;;;;;;;7.90;2.70;;;;;;;0.64;61.38;103429.06;4947336;28;20168;-75
2021/03/06 01:45:50;;;;;;;8.77;2.33;;;;;;;0.65;61.90;103433.38;4965942;28;20109;-76
2021/03/06 01:48:16;;;;;;;6.30;2.30;;;;;;;0.66;62.16;103429.06;4958406;28;20063;-76
2021/03/06 01:50:44;;;;;;;10.60;2.60;;;;;;;0.68;61.88;103427.31;4961398;28;20058;-76
2021/03/06 01:53:13;;;;;;;6.80;2.53;;;;;;;0.64;62.43;103438.56;4959233;28;20145;-75
2021/03/06 01:55:43;;;;;;;7.40;2.47;;;;;;;0.60;62.11;103427.41;4965954;28;20118;-76
2021/03/06 01:58:10;;;;;;;10.88;2.63;;;;;;;0.55;61.79;103416.28;4958518;28;20474;-75
2021/03/06 02:00:36;;;;;;;6.72;2.47;;;;;;;0.60;61.04;103432.56;4947800;28;20067;-75
2021/03/06 02:03:03;;;;;;;9.30;2.30;;;;;;;0.55;61.30;103426.63;4942089;28;20086;-76
2021/03/06 02:05:30;;;;;;;5.07;2.15;;;;;;;0.62;62.54;103425.66;4962488;28;20065;-75
2021/03/06 02:07:56;;;;;;;7.43;2.45;;;;;;;0.56;62.46;103423.13;4965818;28;20055;-75
2021/03/06 02:10:29;;;;;;;11.45;2.85;;;;;;;0.53;62.19;103433.50;4958718;28;20196;-76
2021/03/06 02:13:04;;;;;;;7.90;2.47;;;;;;;0.44;62.41;103420.72;4965002;28;20059;-75
2021/03/06 02:15:33;;;;;;;9.77;2.90;;;;;;;0.47;62.40;103433.56;4956178;28;20122;-75
2021/03/06 02:18:06;;;;;;;8.35;2.53;;;;;;;0.44;62.85;103437.03;4944224;28;20069;-75
2021/03/06 02:20:54;;;;;;;6.57;2.47;;;;;;;0.39;62.32;103433.66;4941327;28;20063;-74
2021/03/06 02:23:43;;;;;;;8.57;2.70;;;;;;;0.35;62.64;103430.28;4963181;28;20069;-74
2021/03/06 02:26:20;;;;;;;8.65;2.17;;;;;;;0.35;63.01;103430.28;4942430;28;20133;-74
2021/03/06 02:29:14;;;;;;;13.40;2.65;;;;;;;0.34;62.30;103432.84;4945830;28;20569;-74
2021/03/06 02:31:41;;;;;;;7.68;2.53;;;;;;;0.28;62.97;103430.34;4952567;28;20091;-74
2021/03/06 02:34:12;;;;;;;7.22;2.60;;;;;;;0.30;62.69;103428.59;4964275;28;20060;-75
2021/03/06 02:36:41;;;;;;;7.03;2.38;;;;;;;0.24;62.63;103424.34;4939731;28;20063;-75
2021/03/06 02:39:12;;;;;;;;;;;;;;;0.25;62.54;103433.78;4961564;28;20141;-75
2021/03/06 02:41:40;;;;;;;7.25;2.33;;;;;;;0.07;62.65;103393.53;4957270;28;19953;-75
2021/03/06 02:44:07;;;;;;;9.87;2.33;;;;;;;0.14;63.27;103409.84;4927459;29;20063;-75
2021/03/06 02:46:34;;;;;;;7.38;2.30;;;;;;;0.22;64.22;103418.34;4954753;28;20141;-76
2021/03/06 02:49:01;;;;;;;7.50;2.75;;;;;;;0.07;63.35;103411.59;4958272;28;20096;-76
2021/03/06 02:51:36;;;;;;;5.68;2.40;;;;;;;0.17;63.47;103425.28;4935707;29;20142;-75
2021/03/06 02:54:02;;;;;;;6.95;2.47;;;;;;;0.17;63.66;103426.13;4957347;28;20086;-74
2021/03/06 02:56:29;;;;;;;6.60;2.33;;;;;;;0.06;63.58;103421.94;4961775;28;20062;-74
2021/03/06 02:59:19;;;;;;;6.13;2.00;;;;;;;0.02;63.84;103423.72;4952197;28;20066;-74
2021/03/06 03:02:14;;;;;;;8.32;2.78;;;;;;;-0.01;63.59;103418.56;4935204;29;21004;-75
2021/03/06 03:04:54;;;;;;;5.05;2.25;;;;;;;-0.04;64.06;103421.16;4929622;28;20062;-75
2021/03/06 03:08:04;;;;;;;5.75;2.45;;;;;;;-0.04;64.27;103423.75;4963611;28;20136;-75
2021/03/06 03:10:48;;;;;;;8.95;3.00;;;;;;;-0.09;63.71;103408.31;4943981;28;20086;-75
2021/03/06 03:13:22;;;;;;;8.00;2.65;;;;;;;-0.17;64.24;103406.69;4922654;28;20096;-75
2021/03/06 03:15:52;;;;;;;6.55;2.33;;;;;;;-0.11;63.66;103414.38;4957080;28;20133;-75
2021/03/06 03:18:28;;;;;;;9.13;2.45;;;;;;;-0.26;64.12;103398.13;4943516;29;20145;-76
2021/03/06 03:20:58;;;;;;;9.30;2.65;;;;;;;-0.17;64.60;103417.84;4953719;28;20067;-75
2021/03/06 03:23:36;;;;;;;6.18;2.35;;;;;;;-0.22;63.94;103411.84;4946163;28;20636;-75
2021/03/06 03:26:06;;;;;;;14.48;2.60;;;;;;;-0.18;64.11;103418.69;4954505;28;20845;-76
2021/03/06 03:28:36;;;;;;;9.85;2.65;;;;;;;-0.26;64.30;103411.03;4958626;28;20059;-76
2021/03/06 03:31:03;;;;;;;9.00;2.70;;;;;;;-0.27;65.04;103418.81;4958729;28;20067;-76
2021/03/06 03:33:30;;;;;;;5.47;2.20;;;;;;;-0.35;65.43;103398.22;4938622;28;20517;-75
2021/03/06 03:35:57;;;;;;;8.57;2.58;;;;;;;-0.46;65.94;103405.19;4947130;28;20094;-75
2021/03/06 03:38:23;;;;;;;4.68;2.50;;;;;;;-0.38;66.24;103395.66;4956683;28;20050;-75
2021/03/06 03:40:50;;;;;;;9.05;2.80;;;;;;;-0.37;65.25;103399.97;4937328;29;20350;-75
2021/03/06 03:43:17;;;;;;;6.70;2.50;;;;;;;-0.29;65.95;103403.34;4948273;28;20091;-75
2021/03/06 03:45:43;;;;;;;4.47;2.08;;;;;;;-0.38;65.00;103385.34;4963714;28;20098;-75
2021/03/06 03:48:10;;;;;;;6.80;2.13;;;;;;;-0.34;64.49;103393.91;4968939;28;20158;-75
2021/03/06 03:50:36;;;;;;;4.00;2.00;;;;;;;-0.34;64.43;103399.06;4945627;28;20691;-75
2021/03/06 03:53:03;;;;;;;8.90;2.63;;;;;;;-0.46;65.13;103393.13;4959456;28;20122;-75
2021/03/06 03:55:30;;;;;;;6.60;2.42;;;;;;;-0.47;65.99;103399.19;4954026;28;20121;-75
2021/03/06 03:57:56;;;;;;;9.23;2.75;;;;;;;-0.48;64.95;103402.63;4972344;28;20051;-75
2021/03/06 04:00:23;;;;;;;9.60;2.40;;;;;;;-0.60;65.46;103388.09;4958008;28;20059;-74
2021/03/06 04:02:49;;;;;;;9.45;2.30;;;;;;;-0.49;66.34;103402.63;4962322;28;20066;-75
2021/03/06 04:05:16;;;;;;;8.82;3.53;;;;;;;-0.47;66.43;103411.19;4931865;28;20484;-75
2021/03/06 04:07:47;;;;;;;14.57;3.10;;;;;;;-0.46;67.14;103400.03;4952427;28;20609;-74
2021/03/06 04:10:21;;;;;;;9.60;3.03;;;;;;;-0.49;65.32;103392.31;4958436;28;20062;-76
2021/03/06 04:12:48;;;;;;;6.93;2.70;;;;;;;-0.47;64.89;103409.50;4956922;28;20066;-74
2021/03/06 04:15:16;;;;;;;6.05;2.55;;;;;;;-0.58;65.58;103413.03;4962839;28;20094;-74
2021/03/06 04:17:43;;;;;;;7.03;2.70;;;;;;;-0.68;66.65;103407.91;4943183;28;20087;-75
2021/03/06 04:20:12;;;;;;;6.32;2.30;;;;;;;-0.66;66.29;103411.34;4948994;28;20054;-74
2021/03/06 04:22:38;;;;;;;6.28;2.70;;;;;;;-0.60;66.17;103429.34;4931778;28;20094;-74
2021/03/06 04:25:06;;;;;;;9.40;2.90;;;;;;;-0.61;65.74;103421.59;4963171;28;20075;-76
2021/03/06 04:27:33;;;;;;;10.85;2.72;;;;;;;-0.68;65.87;103418.22;4957374;28;20061;-75
2021/03/06 04:29:59;;;;;;;6.72;2.60;;;;;;;-0.72;66.78;103432.00;4942246;29;20487;-75
2021/03/06 04:32:26;;;;;;;6.70;2.60;;;;;;;-0.73;66.75;103435.44;4951437;28;20055;-74
2021/03/06 04:34:52;;;;;;;4.70;2.58;;;;;;;-0.80;66.69;103432.03;4953055;28;20514;-74
2021/03/06 04:37:18;;;;;;;5.25;2.30;;;;;;;-0.80;65.51;103437.19;4949596;28;20086;-73
2021/03/06 04:39:44;;;;;;;5.00;2.38;;;;;;;-0.85;66.00;103441.50;4939169;28;20059;-75
2021/03/06 04:42:10;;;;;;;7.70;2.53;;;;;;;-0.94;66.62;103433.84;4945664;28;20133;-75
2021/03/06 04:44:36;;;;;;;5.32;2.70;;;;;;;-0.98;67.26;103434.72;4956168;28;20066;-74
2021/03/06 04:47:03;;;;;;;11.68;3.67;;;;;;;-0.89;67.03;103449.28;4967223;28;20102;-74
2021/03/06 04:49:30;;;;;;;5.90;2.47;;;;;;;-0.91;66.38;103449.28;4953165;28;20054;-75
2021/03/06 04:51:57;;;;;;;12.70;2.92;;;;;;;-0.93;65.75;103438.13;4957639;28;20150;-74
2021/03/06 04:54:23;;;;;;;9.52;2.90;;;;;;;-1.00;66.42;103424.44;4963608;28;20090;-74
2021/03/06 04:57:07;;;;;;;6.82;2.53;;;;;;;-0.89;65.85;103451.84;4959050;28;20137;-74
2021/03/06 04:59:33;;;;;;;9.20;3.80;;;;;;;-0.98;66.43;103439.00;4963181;28;20055;-75
2021/03/06 05:01:59;;;;;;;6.43;2.60;;;;;;;-0.99;65.69;103445.88;4955907;28;20471;-75
2021/03/06 05:04:26;;;;;;;5.97;2.35;;;;;;;-0.93;66.61;103445.00;4940615;28;20491;-75
2021/03/06 05:06:52;;;;;;;10.75;2.85;;;;;;;-0.92;66.04;103463.03;4955092;28;20173;-74
2021/03/06 05:09:21;;;;;;;10.50;3.10;;;;;;;-0.96;67.19;103458.78;4945951;28;20446;-74
2021/03/06 05:11:47;;;;;;;5.05;2.90;;;;;;;-0.95;67.16;103464.78;4956638;28;20118;-77
2021/03/06 05:14:13;;;;;;;9.88;2.97;;;;;;;-1.01;66.54;103450.19;4944679;28;20055;-74
2021/03/06 05:16:39;;;;;;;7.30;3.03;;;;;;;-0.96;66.25;103456.19;4935317;28;20456;-74
2021/03/06 05:19:05;;;;;;;5.85;2.70;;;;;;;-0.96;66.33;103448.47;4941617;28;20070;-75
2021/03/06 05:21:32;;;;;;;9.25;3.38;;;;;;;-0.97;66.75;103457.03;4959726;28;20090;-74
2021/03/06 05:24:26;;;;;;;7.65;2.65;;;;;;;-0.98;66.30;103457.03;4961348;28;20065;-75
2021/03/06 05:27:01;;;;;;;10.20;3.22;;;;;;;-1.06;66.79;103449.34;4949473;28;20168;-75
2021/03/06 05:29:33;;;;;;;7.70;2.65;;;;;;;-1.07;66.61;103455.38;4960456;28;20063;-75
2021/03/06 05:32:01;;;;;;;5.95;2.70;;;;;;;-1.10;66.56;103455.38;4958804;28;20066;-76
2021/03/06 05:34:27;;;;;;;8.60;3.13;;;;;;;-1.21;66.51;103438.25;4934890;28;20069;-75
2021/03/06 05:36:53;;;;;;;4.35;2.45;;;;;;;-1.12;66.79;103462.25;4966381;28;20063;-75
2021/03/06 05:39:20;;;;;;;7.38;2.75;;;;;;;-1.06;66.43;103467.38;4966965;28;20146;-75
2021/03/06 05:41:46;;;;;;;8.52;2.60;;;;;;;-1.10;66.34;103458.81;4942254;28;20063;-75
2021/03/06 05:44:13;;;;;;;11.88;2.60;;;;;;;-1.16;66.45;103460.56;4947887;28;20066;-74
2021/03/06 05:46:43;;;;;;;6.80;2.70;;;;;;;-1.16;66.46;103466.56;4958072;28;20090;-75
2021/03/06 05:49:11;;;;;;;10.63;3.05;;;;;;;-1.23;66.23;103450.28;4947983;28;20059;-75
2021/03/06 05:51:38;;;;;;;5.22;2.78;;;;;;;-1.21;66.57;103453.72;4959229;28;20063;-75
2021/03/06 05:54:11;;;;;;;12.27;3.55;;;;;;;-1.28;66.26;103441.69;4965265;28;20846;-75
2021/03/06 05:56:40;;;;;;;5.47;2.70;;;;;;;-1.27;66.29;103450.31;4940641;28;20090;-75
2021/03/06 05:59:07;;;;;;;6.72;2.85;;;;;;;-1.32;66.42;103446.88;4962531;28;20545;-73
2021/03/06 06:01:34;;;;;;;7.45;2.90;;;;;;;-1.33;67.12;103452.88;4961537;28;20059;-74
2021/03/06 06:04:01;;;;;;;4.80;2.53;;;;;;;-1.38;66.54;103445.19;4958805;28;20069;-75
2021/03/06 06:06:29;;;;;;;7.28;3.25;;;;;;;-1.33;67.01;103461.47;4965513;28;20059;-76
2021/03/06 06:08:58;;;;;;;8.48;2.90;;;;;;;-1.30;67.46;103465.75;4959097;28;20086;-76
2021/03/06 06:11:27;;;;;;;9.40;3.22;;;;;;;-1.34;67.85;103458.91;4947805;28;20144;-75
2021/03/06 06:14:00;;;;;;;7.63;3.25;;;;;;;-1.31;67.64;103459.75;4953918;28;20466;-75
2021/03/06 06:16:30;;;;;;;5.93;2.58;;;;;;;-1.23;67.29;103475.19;4961668;28;20094;-75
2021/03/06 06:19:05;;;;;;;7.15;3.30;;;;;;;-1.27;66.99;103468.34;4925095;28;20058;-75
2021/03/06 06:21:40;;;;;;;7.38;2.90;;;;;;;-1.27;66.32;103464.03;4954917;28;20845;-74
2021/03/06 06:24:10;;;;;;;10.52;3.67;;;;;;;-1.27;67.19;103466.63;4965336;28;20101;-74
2021/03/06 06:26:37;;;;;;;11.50;3.30;;;;;;;-1.27;67.27;103469.19;4930444;28;20098;-74
2021/03/06 06:29:04;;;;;;;7.97;2.97;;;;;;;-1.31;67.56;103464.06;4938743;28;20566;-74
2021/03/06 06:31:30;;;;;;;8.82;3.38;;;;;;;-1.24;67.48;103476.88;4941723;28;20185;-73
2021/03/06 06:33:57;;;;;;;6.72;3.05;;;;;;;-1.28;67.10;103470.03;4934333;29;20483;-73
2021/03/06 06:36:34;;;;;;;9.38;3.55;;;;;;;-1.30;67.62;103481.22;4955187;28;21001;-76
2021/03/06 06:39:01;;;;;;;6.70;3.40;;;;;;;-1.34;67.85;103485.50;4962919;28;20058;-77
2021/03/06 06:41:50;;;;;;;10.63;3.53;;;;;;;-1.27;67.43;103492.38;4955192;28;20058;-76
2021/03/06 06:44:16;;;;;;;8.02;3.35;;;;;;;-1.28;67.20;103488.06;4947675;28;20162;-76
2021/03/06 06:46:42;;;;;;;7.65;3.70;;;;;;;-1.27;67.34;103488.94;4945838;28;20911;-75
2021/03/06 06:49:09;;;;;;;10.30;3.55;;;;;;;-1.13;67.53;103502.63;4956130;28;20189;-76
2021/03/06 06:51:35;;;;;;;10.98;3.58;;;;;;;-1.22;67.42;103493.19;4941499;28;20430;-75
2021/03/06 06:54:13;;;;;;;7.80;3.10;;;;;;;-1.15;68.26;103509.50;4952460;28;20058;-75
2021/03/06 06:56:40;;;;;;;11.13;3.80;;;;;;;-1.12;68.41;103514.63;4966073;28;20423;-75
2021/03/06 06:59:10;;;;;;;13.60;3.50;;;;;;;-1.08;68.64;103525.78;4941641;28;20160;-75
2021/03/06 07:01:37;;;;;;;7.55;3.67;;;;;;;-1.13;68.02;103514.66;4944523;28;20146;-76
2021/03/06 07:04:09;;;;;;;9.35;3.60;;;;;;;-1.10;67.98;103509.47;4957399;28;20422;-74
2021/03/06 07:06:40;;;;;;;7.65;3.35;;;;;;;-0.99;69.09;103520.59;4960141;28;20058;-74
2021/03/06 07:09:11;;;;;;;8.52;3.88;;;;;;;-0.96;68.99;103518.03;4940075;28;20827;-74
2021/03/06 07:11:38;;;;;;;10.32;3.50;;;;;;;-0.88;68.82;103529.16;4954941;28;20067;-74
2021/03/06 07:14:05;;;;;;;8.60;4.15;;;;;;;-0.87;68.71;103525.72;4946672;28;20499;-75
2021/03/06 07:16:59;;;;;;;6.75;3.53;;;;;;;-0.78;68.68;103531.69;4959378;28;20078;-75
2021/03/06 07:19:30;;;;;;;7.43;3.50;;;;;;;-0.78;68.71;103534.25;4964936;28;20473;-75
2021/03/06 07:21:58;;;;;;;13.15;3.58;;;;;;;-0.68;69.39;103539.38;4953472;28;20055;-75
2021/03/06 07:24:28;;;;;;;11.43;3.80;;;;;;;-0.60;71.00;103539.34;4963868;28;20069;-74
2021/03/06 07:26:55;;;;;;;9.93;4.25;;;;;;;-0.51;70.44;103534.16;4958692;28;20581;-74
2021/03/06 07:29:22;;;;;;;6.80;3.28;;;;;;;-0.43;70.08;103532.38;4938499;28;20094;-74
2021/03/06 07:31:51;;;;;;;13.60;3.97;;;;;;;-0.36;70.48;103535.78;4963930;28;20129;-74
2021/03/06 07:34:20;;;;;;;9.32;3.33;;;;;;;-0.27;70.26;103537.47;4953899;28;21041;-74
2021/03/06 07:36:47;;;;;;;9.17;3.53;;;;;;;-0.25;69.98;103534.00;4961608;28;20071;-75
2021/03/06 07:39:15;;;;;;;10.70;3.47;;;;;;;-0.13;69.67;103529.63;4959518;28;20284;-75
2021/03/06 07:41:48;;;;;;;8.75;2.72;;;;;;;-0.11;69.66;103536.47;4963442;28;20079;-74
2021/03/06 07:44:18;;;;;;;12.95;3.65;;;;;;;0.00;70.68;103536.41;4958507;28;20153;-75
2021/03/06 07:46:45;;;;;;;10.15;3.13;;;;;;;0.05;70.08;103542.38;4968891;28;20063;-75
2021/03/06 07:49:13;;;;;;;5.68;3.22;;;;;;;0.13;70.31;103543.19;4954420;28;20573;-74
2021/03/06 07:51:41;;;;;;;10.13;3.05;;;;;;;0.16;70.70;103537.16;4958990;28;20066;-75
2021/03/06 07:54:10;;;;;;;7.00;3.40;;;;;;;0.15;70.79;103535.44;4963140;28;20070;-74
2021/03/06 07:56:38;;;;;;;9.30;3.75;;;;;;;0.29;70.40;103551.66;4959614;28;20140;-75
2021/03/06 07:59:46;;;;;;;6.93;2.72;;;;;;;0.36;70.23;103547.31;4963764;28;20151;-74
2021/03/06 08:02:37;;;;;;;13.25;3.90;;;;;;;0.43;70.35;103545.53;4943728;28;20087;-76
2021/03/06 08:05:06;;;;;;;6.28;2.78;;;;;;;0.44;70.86;103537.75;4959591;28;20071;-75
2021/03/06 08:07:41;;;;;;;6.40;2.83;;;;;;;0.45;71.29;103533.44;4956704;28;20426;-74
2021/03/06 08:10:09;;;;;;;7.03;2.70;;;;;;;0.59;70.94;103544.53;4932565;29;20134;-74
2021/03/06 08:12:36;;;;;;;8.02;2.30;;;;;;;0.63;70.90;103542.75;4942823;28;20494;-74
2021/03/06 08:15:27;;;;;;;12.32;3.13;;;;;;;0.72;71.82;103553.84;4952111;28;20063;-75
2021/03/06 08:17:55;;;;;;;15.50;3.25;;;;;;;0.79;72.07;103550.34;4923239;28;20058;-75
2021/03/06 08:20:26;;;;;;;12.05;3.72;;;;;;;0.87;72.10;103552.00;4947018;28;20090;-74
2021/03/06 08:23:19;;;;;;;10.75;3.03;;;;;;;0.94;71.93;103548.44;4932395;28;20177;-75
2021/03/06 08:26:09;;;;;;;15.65;3.13;;;;;;;1.00;71.94;103543.22;4950227;28;20078;-74
2021/03/06 08:28:35;;;;;;;8.02;2.55;;;;;;;1.09;71.88;103540.53;4955691;28;20050;-74
2021/03/06 08:31:36;;;;;;;8.93;3.22;;;;;;;1.15;72.80;103545.63;4949832;28;20601;-74
2021/03/06 08:34:25;;;;;;;10.98;2.63;;;;;;;1.19;72.38;103538.69;4951190;28;20141;-74
2021/03/06 08:36:52;;;;;;;14.32;3.05;;;;;;;1.24;73.52;103533.47;4960161;28;20145;-74
2021/03/06 08:39:18;;;;;;;16.02;3.33;;;;;;;1.34;73.91;103545.41;4953608;28;20086;-74
2021/03/06 08:41:44;;;;;;;11.05;3.20;;;;;;;1.40;74.11;103541.88;4962263;28;20055;-75
2021/03/06 08:44:10;;;;;;;13.05;2.92;;;;;;;1.42;73.51;103537.53;4960383;28;20079;-73
2021/03/06 08:46:42;;;;;;;6.63;3.10;;;;;;;1.50;73.73;103540.88;4959628;28;20066;-74
2021/03/06 08:49:09;;;;;;;11.90;3.30;;;;;;;1.56;73.67;103551.13;4962791;28;20054;-74
2021/03/06 08:51:35;;;;;;;14.88;3.85;;;;;;;1.64;72.74;103546.72;4960309;28;20065;-74
2021/03/06 08:54:02;;;;;;;11.27;3.88;;;;;;;1.71;73.43;103545.75;4966107;28;20065;-74
2021/03/06 08:56:38;;;;;;;8.85;3.13;;;;;;;1.72;72.47;103539.69;4962851;28;20137;-74
2021/03/06 08:59:04;;;;;;;16.23;3.88;;;;;;;1.78;73.13;103543.91;4965628;28;20086;-74
2021/03/06 09:01:34;;;;;;;11.90;3.63;;;;;;;1.86;73.77;103552.44;4957392;28;20145;-75
2021/03/06 09:04:01;;;;;;;17.38;3.47;;;;;;;1.87;73.92;103543.78;4965401;28;20109;-75
2021/03/06 09:06:40;;;;;;;9.95;3.40;;;;;;;2.04;73.53;103550.44;4967350;28;20518;-75
2021/03/06 09:09:09;;;;;;;10.43;2.90;;;;;;;2.10;73.20;103558.13;4964035;28;20149;-75
2021/03/06 09:11:55;;;;;;;6.63;2.50;;;;;;;2.18;73.74;103561.44;4963703;28;20079;-73
2021/03/06 09:14:21;;;;;;;7.22;2.90;;;;;;;2.20;73.27;103551.91;4939051;28;20122;-73
2021/03/06 09:16:50;;;;;;;14.13;3.63;;;;;;;2.33;72.94;103560.31;4964592;28;20094;-74
2021/03/06 09:19:28;;;;;;;12.90;3.03;;;;;;;2.41;72.63;103565.38;4959215;28;20917;-73
2021/03/06 09:22:04;;;;;;;13.35;5.13;;;;;;;2.44;73.40;103554.97;4964988;28;20157;-74
2021/03/06 09:24:52;;;;;;;14.52;3.70;;;;;;;2.51;72.17;103560.03;4960953;28;20090;-74
2021/03/06 09:27:18;;;;;;;10.33;3.57;;;;;;;2.63;72.18;103563.28;4949547;28;20169;-74
2021/03/06 09:29:47;;;;;;;13.85;4.05;;;;;;;2.65;72.74;103546.81;4958967;28;20057;-76
2021/03/06 09:32:14;;;;;;;8.70;3.08;;;;;;;2.78;71.94;103552.63;4965170;28;20058;-73
2021/03/06 09:34:42;;;;;;;12.65;3.50;;;;;;;2.89;72.06;103557.63;4960028;28;20065;-74
2021/03/06 09:37:19;;;;;;;12.65;2.83;;;;;;;3.01;72.01;103553.94;4949687;28;20062;-74
2021/03/06 09:39:45;;;;;;;11.40;3.55;;;;;;;3.07;71.80;103546.88;4958207;28;20768;-74
2021/03/06 09:42:17;;;;;;;14.27;3.85;;;;;;;3.29;71.30;103552.50;4960713;28;20059;-74
2021/03/06 09:44:50;;;;;;;8.50;2.47;;;;;;;3.42;70.59;103544.44;4959569;28;20090;-74
2021/03/06 09:47:23;;;;;;;10.65;3.25;;;;;;;3.64;70.43;103539.63;4946677;28;20094;-74
2021/03/06 09:49:49;;;;;;;13.32;3.00;;;;;;;3.95;69.93;103544.97;4947081;28;20406;-75
2021/03/06 09:52:16;;;;;;;17.23;3.78;;;;;;;4.15;68.91;103539.28;4955720;28;20067;-75
2021/03/06 09:54:42;;;;;;;15.48;3.83;;;;;;;4.30;68.54;103531.09;4947410;28;20098;-74
2021/03/06 09:57:08;;;;;;;14.00;3.28;;;;;;;4.42;67.79;103532.53;4939942;28;20145;-74
2021/03/06 09:59:37;;;;;;;15.95;3.67;;;;;;;4.54;67.61;103536.56;4964096;28;20094;-74
2021/03/06 10:02:12;;;;;;;12.20;3.45;;;;;;;4.54;65.28;103527.00;4957476;28;20145;-74
2021/03/06 10:04:38;;;;;;;11.80;3.42;;;;;;;4.65;65.40;103531.94;4964257;28;20510;-73
2021/03/06 10:07:09;;;;;;;12.25;3.42;;;;;;;4.73;65.08;103521.31;4940883;28;20067;-74
2021/03/06 10:09:36;;;;;;;18.20;3.60;;;;;;;4.81;64.12;103532.38;4935584;28;20854;-72
2021/03/06 10:12:13;;;;;;;14.48;3.05;;;;;;;4.89;63.15;103532.16;4957796;28;20062;-73
2021/03/06 10:14:39;;;;;;;5.40;1.38;;;;;;;4.85;61.50;103525.34;4949709;28;20196;-74
2021/03/06 10:17:07;;;;;;;3.75;1.50;;;;;;;4.85;59.68;103526.19;4959341;28;20454;-74
2021/03/06 10:19:45;;;;;;;6.38;1.20;;;;;;;4.92;60.27;103524.25;4954655;28;20054;-73
2021/03/06 10:22:13;;;;;;;8.73;2.20;;;;;;;4.92;59.92;103522.53;4953751;28;20487;-74
2021/03/06 10:25:08;;;;;;;11.38;1.92;;;;;;;4.99;59.48;103532.75;4942530;28;20062;-74
2021/03/06 10:27:55;;;;;;;6.43;1.48;;;;;;;5.04;58.79;103533.47;4955075;28;20077;-75
2021/03/06 10:30:36;;;;;;;4.53;1.30;;;;;;;5.00;57.59;103529.22;4958226;28;20141;-74
2021/03/06 10:33:05;;;;;;;10.52;1.38;;;;;;;5.00;57.84;103530.13;4938612;28;20063;-74
2021/03/06 10:35:43;;;;;;;2.95;1.15;;;;;;;5.09;57.34;103539.38;4953997;28;20059;-73
2021/03/06 10:38:15;;;;;;;3.60;1.40;;;;;;;5.15;58.11;103534.88;4945303;28;20142;-75
2021/03/06 10:40:42;;;;;;;7.07;1.35;;;;;;;5.15;55.84;103528.81;4954489;28;20059;-73
2021/03/06 10:43:09;;;;;;;6.32;1.13;;;;;;;5.19;54.55;103516.56;4957549;28;20086;-74
2021/03/06 10:45:39;;;;;;;4.32;1.15;;;;;;;5.21;55.18;103523.41;4946711;28;20118;-73
2021/03/06 10:48:06;;;;;;;4.40;0.90;;;;;;;5.30;54.31;103524.91;4959494;28;20194;-74
2021/03/06 10:50:39;;;;;;;7.28;1.40;;;;;;;5.43;54.10;103526.25;4958025;28;20109;-72
2021/03/06 10:53:17;;;;;;;6.40;1.33;;;;;;;5.55;53.45;103525.88;4952610;28;20171;-73
2021/03/06 10:55:45;;;;;;;6.88;1.75;;;;;;;5.65;53.94;103523.81;4960805;28;20086;-74
2021/03/06 10:58:11;;;;;;;3.00;1.17;;;;;;;5.63;52.38;103524.78;4962539;28;20711;-74
2021/03/06 11:00:39;;;;;;;3.85;1.15;;;;;;;5.88;52.95;103510.06;4964360;28;20125;-73
2021/03/06 11:03:08;;;;;;;2.97;0.82;;;;;;;6.19;51.25;103521.25;4936096;28;20810;-78
2021/03/06 11:05:39;;;;;;;6.68;1.00;;;;;;;6.53;50.99;103510.53;4959304;28;20086;-74
2021/03/06 11:08:14;;;;;;;7.53;1.00;;;;;;;6.77;49.77;103503.59;4943746;28;20566;-74
2021/03/06 11:10:42;;;;;;;5.47;1.42;;;;;;;7.03;49.67;103502.59;4955984;28;20102;-74
2021/03/06 11:13:08;;;;;;;6.85;1.30;;;;;;;7.13;48.08;103500.50;4947712;28;20055;-73
2021/03/06 11:15:35;;;;;;;4.22;0.82;;;;;;;7.32;46.99;103492.81;4939999;28;20114;-75
2021/03/06 11:18:03;;;;;;;5.03;1.10;;;;;;;7.56;46.49;103490.16;4942633;28;20058;-73
2021/03/06 11:20:33;;;;;;;4.28;1.17;;;;;;;7.71;46.76;103485.16;4957255;28;20058;-74
2021/03/06 11:23:03;;;;;;;5.45;1.17;;;;;;;8.01;46.66;103479.56;4964978;28;20066;-75
2021/03/06 11:25:29;;;;;;;3.75;1.05;;;;;;;8.23;45.71;103476.06;4958472;28;20152;-74
2021/03/06 11:28:00;;;;;;;3.13;1.20;;;;;;;8.41;46.91;103475.31;4951066;28;20117;-76
2021/03/06 11:30:29;;;;;;;4.85;1.50;;;;;;;8.52;44.78;103475.66;4959361;28;20796;-74
2021/03/06 11:32:55;;;;;;;5.53;1.23;;;;;;;8.68;43.36;103473.22;4953036;28;20058;-73
2021/03/06 11:35:23;;;;;;;5.35;1.23;;;;;;;8.84;43.52;103475.13;4963900;28;20065;-75
2021/03/06 11:37:50;;;;;;;3.00;0.85;;;;;;;8.98;42.58;103472.75;4957704;28;20050;-74
2021/03/06 11:40:20;;;;;;;4.68;1.10;;;;;;;9.13;42.83;103465.94;4950586;28;20058;-75